sensor_id;sensor_type;location;lat;lon;timestamp;temperature;humidity
20416;DHT22;10367;52.202;5.996;2024-01-07T00:01:19;1.50;99.90
20416;DHT22;10367;52.202;5.996;2024-01-07T00:03:48;1.50;99.90
20416;DHT22;10367;52.202;5.996;2024-01-07T00:06:17;1.50;99.90
20416;DHT22;10367;52.202;5.996;2024-01-07T00:08:46;1.50;99.90
20416;DHT22;10367;52.202;5.996;2024-01-07T00:11:16;1.50;99.90
20416;DHT22;10367;52.202;5.996;2024-01-07T00:13:45;1.60;99.90
20416;DHT22;10367;52.202;5.996;2024-01-07T00:16:14;1.50;99.90
20416;DHT22;10367;52.202;5.996;2024-01-07T00:18:44;1.50;99.90
20416;DHT22;10367;52.202;5.996;2024-01-07T00:21:13;1.50;99.90
20416;DHT22;10367;52.202;5.996;2024-01-07T00:23:41;1.40;99.90
20416;DHT22;10367;52.202;5.996;2024-01-07T00:26:10;1.40;99.90
20416;DHT22;10367;52.202;5.996;2024-01-07T00:28:39;1.40;99.90
20416;DHT22;10367;52.202;5.996;2024-01-07T00:31:07;1.50;99.90
20416;DHT22;10367;52.202;5.996;2024-01-07T00:33:36;1.50;99.90
20416;DHT22;10367;52.202;5.996;2024-01-07T00:36:07;1.40;99.90
20416;DHT22;10367;52.202;5.996;2024-01-07T00:38:36;1.40;99.90
20416;DHT22;10367;52.202;5.996;2024-01-07T00:41:05;1.40;99.90
20416;DHT22;10367;52.202;5.996;2024-01-07T00:43:33;1.40;99.90
20416;DHT22;10367;52.202;5.996;2024-01-07T00:46:02;1.50;99.90
20416;DHT22;10367;52.202;5.996;2024-01-07T00:48:31;1.50;99.90
20416;DHT22;10367;52.202;5.996;2024-01-07T00:51:00;1.40;99.90
20416;DHT22;10367;52.202;5.996;2024-01-07T00:53:30;1.40;99.90
20416;DHT22;10367;52.202;5.996;2024-01-07T00:55:59;1.40;99.90
20416;DHT22;10367;52.202;5.996;2024-01-07T00:58:28;1.40;99.90
20416;DHT22;10367;52.202;5.996;2024-01-07T01:00:57;1.40;99.90
20416;DHT22;10367;52.202;5.996;2024-01-07T01:03:27;1.40;99.90
20416;DHT22;10367;52.202;5.996;2024-01-07T01:05:56;1.30;99.90
20416;DHT22;10367;52.202;5.996;2024-01-07T01:08:25;1.30;99.90
20416;DHT22;10367;52.202;5.996;2024-01-07T01:10:55;1.30;99.90
20416;DHT22;10367;52.202;5.996;2024-01-07T01:13:24;1.30;99.90
20416;DHT22;10367;52.202;5.996;2024-01-07T01:15:53;1.30;99.90
20416;DHT22;10367;52.202;5.996;2024-01-07T01:18:22;1.30;99.90
20416;DHT22;10367;52.202;5.996;2024-01-07T01:20:51;1.30;99.90
20416;DHT22;10367;52.202;5.996;2024-01-07T01:23:20;1.30;99.90
20416;DHT22;10367;52.202;5.996;2024-01-07T01:25:49;1.40;99.90
20416;DHT22;10367;52.202;5.996;2024-01-07T01:28:19;1.40;99.90
20416;DHT22;10367;52.202;5.996;2024-01-07T01:30:48;1.40;99.90
20416;DHT22;10367;52.202;5.996;2024-01-07T01:33:17;1.30;99.90
20416;DHT22;10367;52.202;5.996;2024-01-07T01:35:46;1.30;99.90
20416;DHT22;10367;52.202;5.996;2024-01-07T01:38:15;1.30;99.90
20416;DHT22;10367;52.202;5.996;2024-01-07T01:40:44;1.30;99.90
20416;DHT22;10367;52.202;5.996;2024-01-07T01:43:24;1.30;99.90
20416;DHT22;10367;52.202;5.996;2024-01-07T01:45:53;1.30;99.90
20416;DHT22;10367;52.202;5.996;2024-01-07T01:48:22;1.30;99.90
20416;DHT22;10367;52.202;5.996;2024-01-07T01:50:53;1.30;99.90
20416;DHT22;10367;52.202;5.996;2024-01-07T01:53:25;1.30;99.90
20416;DHT22;10367;52.202;5.996;2024-01-07T01:55:56;1.40;99.90
20416;DHT22;10367;52.202;5.996;2024-01-07T01:58:28;1.30;99.90
20416;DHT22;10367;52.202;5.996;2024-01-07T02:00:57;1.30;99.90
20416;DHT22;10367;52.202;5.996;2024-01-07T02:03:27;1.20;99.90
20416;DHT22;10367;52.202;5.996;2024-01-07T02:05:56;1.30;99.90
20416;DHT22;10367;52.202;5.996;2024-01-07T02:08:26;1.20;99.90
20416;DHT22;10367;52.202;5.996;2024-01-07T02:10:55;1.20;99.90
20416;DHT22;10367;52.202;5.996;2024-01-07T02:13:24;1.20;99.90
20416;DHT22;10367;52.202;5.996;2024-01-07T02:15:54;1.20;99.90
20416;DHT22;10367;52.202;5.996;2024-01-07T02:18:23;1.20;99.90
20416;DHT22;10367;52.202;5.996;2024-01-07T02:20:51;1.20;99.90
20416;DHT22;10367;52.202;5.996;2024-01-07T02:23:20;1.20;99.90
20416;DHT22;10367;52.202;5.996;2024-01-07T02:25:51;1.20;99.90
20416;DHT22;10367;52.202;5.996;2024-01-07T02:28:20;1.20;99.90
20416;DHT22;10367;52.202;5.996;2024-01-07T02:30:49;1.20;99.90
20416;DHT22;10367;52.202;5.996;2024-01-07T02:33:18;1.10;99.90
20416;DHT22;10367;52.202;5.996;2024-01-07T02:35:47;1.10;99.90
20416;DHT22;10367;52.202;5.996;2024-01-07T02:38:16;1.10;99.90
20416;DHT22;10367;52.202;5.996;2024-01-07T02:40:44;1.10;99.90
20416;DHT22;10367;52.202;5.996;2024-01-07T02:43:14;1.20;99.90
20416;DHT22;10367;52.202;5.996;2024-01-07T02:45:43;1.10;99.90
20416;DHT22;10367;52.202;5.996;2024-01-07T02:48:12;1.10;99.90
20416;DHT22;10367;52.202;5.996;2024-01-07T02:50:41;1.10;99.90
20416;DHT22;10367;52.202;5.996;2024-01-07T02:53:09;1.10;99.90
20416;DHT22;10367;52.202;5.996;2024-01-07T02:55:39;1.10;99.90
20416;DHT22;10367;52.202;5.996;2024-01-07T02:58:08;1.10;99.90
20416;DHT22;10367;52.202;5.996;2024-01-07T03:00:38;1.10;99.90
20416;DHT22;10367;52.202;5.996;2024-01-07T03:03:07;1.10;99.90
20416;DHT22;10367;52.202;5.996;2024-01-07T03:05:35;1.10;99.90
20416;DHT22;10367;52.202;5.996;2024-01-07T03:08:05;1.10;99.90
20416;DHT22;10367;52.202;5.996;2024-01-07T03:10:33;1.10;99.90
20416;DHT22;10367;52.202;5.996;2024-01-07T03:13:02;1.10;99.90
20416;DHT22;10367;52.202;5.996;2024-01-07T03:15:31;1.10;99.90
20416;DHT22;10367;52.202;5.996;2024-01-07T03:18:01;1.10;99.90
20416;DHT22;10367;52.202;5.996;2024-01-07T03:20:30;1.10;99.90
20416;DHT22;10367;52.202;5.996;2024-01-07T03:23:00;1.10;99.90
20416;DHT22;10367;52.202;5.996;2024-01-07T03:25:29;1.10;99.90
20416;DHT22;10367;52.202;5.996;2024-01-07T03:27:57;1.10;99.90
20416;DHT22;10367;52.202;5.996;2024-01-07T03:30:26;1.10;99.90
20416;DHT22;10367;52.202;5.996;2024-01-07T03:32:55;1.10;99.90
20416;DHT22;10367;52.202;5.996;2024-01-07T03:35:25;1.20;99.90
20416;DHT22;10367;52.202;5.996;2024-01-07T03:37:54;1.10;99.90
20416;DHT22;10367;52.202;5.996;2024-01-07T03:40:23;1.20;99.90
20416;DHT22;10367;52.202;5.996;2024-01-07T03:42:51;1.20;99.90
20416;DHT22;10367;52.202;5.996;2024-01-07T03:45:20;1.10;99.90
20416;DHT22;10367;52.202;5.996;2024-01-07T03:47:49;1.10;99.90
20416;DHT22;10367;52.202;5.996;2024-01-07T03:50:18;1.10;99.90
20416;DHT22;10367;52.202;5.996;2024-01-07T03:52:48;1.10;99.90
20416;DHT22;10367;52.202;5.996;2024-01-07T03:55:17;1.10;99.90
20416;DHT22;10367;52.202;5.996;2024-01-07T03:57:45;1.10;99.90
20416;DHT22;10367;52.202;5.996;2024-01-07T04:00:14;1.10;99.90
20416;DHT22;10367;52.202;5.996;2024-01-07T04:02:43;1.10;99.90
20416;DHT22;10367;52.202;5.996;2024-01-07T04:05:12;1.10;99.90
20416;DHT22;10367;52.202;5.996;2024-01-07T04:07:42;1.10;99.90
20416;DHT22;10367;52.202;5.996;2024-01-07T04:10:12;1.10;99.90
20416;DHT22;10367;52.202;5.996;2024-01-07T04:12:41;1.00;99.90
20416;DHT22;10367;52.202;5.996;2024-01-07T04:15:11;1.00;99.90
20416;DHT22;10367;52.202;5.996;2024-01-07T04:17:40;1.00;99.90
20416;DHT22;10367;52.202;5.996;2024-01-07T04:20:12;1.00;99.90
20416;DHT22;10367;52.202;5.996;2024-01-07T04:22:41;1.00;99.90
20416;DHT22;10367;52.202;5.996;2024-01-07T04:25:12;1.00;99.90
20416;DHT22;10367;52.202;5.996;2024-01-07T04:27:41;1.00;99.90
20416;DHT22;10367;52.202;5.996;2024-01-07T04:30:10;1.00;99.90
20416;DHT22;10367;52.202;5.996;2024-01-07T04:32:39;0.90;99.90
20416;DHT22;10367;52.202;5.996;2024-01-07T04:35:08;0.90;99.90
20416;DHT22;10367;52.202;5.996;2024-01-07T04:37:37;1.00;99.90
20416;DHT22;10367;52.202;5.996;2024-01-07T04:40:07;0.90;99.90
20416;DHT22;10367;52.202;5.996;2024-01-07T04:42:37;0.90;99.90
20416;DHT22;10367;52.202;5.996;2024-01-07T04:45:06;0.90;99.90
20416;DHT22;10367;52.202;5.996;2024-01-07T04:47:35;1.00;99.90
20416;DHT22;10367;52.202;5.996;2024-01-07T04:50:05;0.90;99.90
20416;DHT22;10367;52.202;5.996;2024-01-07T04:52:34;0.90;99.90
20416;DHT22;10367;52.202;5.996;2024-01-07T04:55:03;0.90;99.90
20416;DHT22;10367;52.202;5.996;2024-01-07T04:57:32;0.90;99.90
20416;DHT22;10367;52.202;5.996;2024-01-07T05:00:02;0.90;99.90
20416;DHT22;10367;52.202;5.996;2024-01-07T05:02:32;0.90;99.90
20416;DHT22;10367;52.202;5.996;2024-01-07T05:05:00;0.90;99.90
20416;DHT22;10367;52.202;5.996;2024-01-07T05:07:29;0.90;99.90
20416;DHT22;10367;52.202;5.996;2024-01-07T05:09:58;0.90;99.90
20416;DHT22;10367;52.202;5.996;2024-01-07T05:12:26;0.90;99.90
20416;DHT22;10367;52.202;5.996;2024-01-07T05:14:55;0.90;99.90
20416;DHT22;10367;52.202;5.996;2024-01-07T05:17:25;0.90;99.90
20416;DHT22;10367;52.202;5.996;2024-01-07T05:19:54;0.90;99.90
20416;DHT22;10367;52.202;5.996;2024-01-07T05:22:23;0.90;99.90
20416;DHT22;10367;52.202;5.996;2024-01-07T05:24:52;0.90;99.90
20416;DHT22;10367;52.202;5.996;2024-01-07T05:27:21;0.90;99.90
20416;DHT22;10367;52.202;5.996;2024-01-07T05:29:49;0.90;99.90
20416;DHT22;10367;52.202;5.996;2024-01-07T05:32:18;0.90;99.90
20416;DHT22;10367;52.202;5.996;2024-01-07T05:34:48;0.90;99.90
20416;DHT22;10367;52.202;5.996;2024-01-07T05:37:18;0.90;99.90
20416;DHT22;10367;52.202;5.996;2024-01-07T05:39:47;0.90;99.90
20416;DHT22;10367;52.202;5.996;2024-01-07T05:42:15;0.90;99.90
20416;DHT22;10367;52.202;5.996;2024-01-07T05:44:44;0.90;99.90
20416;DHT22;10367;52.202;5.996;2024-01-07T05:47:13;0.90;99.90
20416;DHT22;10367;52.202;5.996;2024-01-07T05:49:41;0.90;99.90
20416;DHT22;10367;52.202;5.996;2024-01-07T05:52:11;0.90;99.90
20416;DHT22;10367;52.202;5.996;2024-01-07T05:54:40;0.90;99.90
20416;DHT22;10367;52.202;5.996;2024-01-07T05:57:10;0.80;99.90
20416;DHT22;10367;52.202;5.996;2024-01-07T05:59:39;0.90;99.90
20416;DHT22;10367;52.202;5.996;2024-01-07T06:02:07;0.90;99.90
20416;DHT22;10367;52.202;5.996;2024-01-07T06:04:37;0.90;99.90
20416;DHT22;10367;52.202;5.996;2024-01-07T06:07:06;0.90;99.90
20416;DHT22;10367;52.202;5.996;2024-01-07T06:09:36;0.90;99.90
20416;DHT22;10367;52.202;5.996;2024-01-07T06:12:05;0.80;99.90
20416;DHT22;10367;52.202;5.996;2024-01-07T06:14:34;0.80;99.90
20416;DHT22;10367;52.202;5.996;2024-01-07T06:17:03;0.80;99.90
20416;DHT22;10367;52.202;5.996;2024-01-07T06:19:32;0.90;99.90
20416;DHT22;10367;52.202;5.996;2024-01-07T06:22:01;0.90;99.90
20416;DHT22;10367;52.202;5.996;2024-01-07T06:24:30;0.90;99.90
20416;DHT22;10367;52.202;5.996;2024-01-07T06:27:00;0.90;99.90
20416;DHT22;10367;52.202;5.996;2024-01-07T06:29:31;0.80;99.90
20416;DHT22;10367;52.202;5.996;2024-01-07T06:32:01;0.80;99.90
20416;DHT22;10367;52.202;5.996;2024-01-07T06:34:31;0.80;99.90
20416;DHT22;10367;52.202;5.996;2024-01-07T06:37:00;0.80;99.90
20416;DHT22;10367;52.202;5.996;2024-01-07T06:39:29;0.80;99.90
20416;DHT22;10367;52.202;5.996;2024-01-07T06:42:00;0.80;99.90
20416;DHT22;10367;52.202;5.996;2024-01-07T06:44:29;0.80;99.90
20416;DHT22;10367;52.202;5.996;2024-01-07T06:46:58;0.80;99.90
20416;DHT22;10367;52.202;5.996;2024-01-07T06:49:27;0.80;99.90
20416;DHT22;10367;52.202;5.996;2024-01-07T06:51:56;0.80;99.90
20416;DHT22;10367;52.202;5.996;2024-01-07T06:54:25;0.70;99.90
20416;DHT22;10367;52.202;5.996;2024-01-07T06:56:54;0.80;99.90
20416;DHT22;10367;52.202;5.996;2024-01-07T06:59:24;0.80;99.90
20416;DHT22;10367;52.202;5.996;2024-01-07T07:01:52;0.70;99.90
20416;DHT22;10367;52.202;5.996;2024-01-07T07:04:22;0.70;99.90
20416;DHT22;10367;52.202;5.996;2024-01-07T07:06:51;0.70;99.90
20416;DHT22;10367;52.202;5.996;2024-01-07T07:09:21;0.60;99.90
20416;DHT22;10367;52.202;5.996;2024-01-07T07:11:49;0.60;99.90
20416;DHT22;10367;52.202;5.996;2024-01-07T07:14:18;0.60;99.90
20416;DHT22;10367;52.202;5.996;2024-01-07T07:16:48;0.50;99.90
20416;DHT22;10367;52.202;5.996;2024-01-07T07:19:17;0.50;99.90
20416;DHT22;10367;52.202;5.996;2024-01-07T07:21:46;0.50;99.90
20416;DHT22;10367;52.202;5.996;2024-01-07T07:24:15;0.50;99.90
20416;DHT22;10367;52.202;5.996;2024-01-07T07:26:44;0.50;99.90
20416;DHT22;10367;52.202;5.996;2024-01-07T07:29:12;0.50;99.90
20416;DHT22;10367;52.202;5.996;2024-01-07T07:31:41;0.50;99.90
20416;DHT22;10367;52.202;5.996;2024-01-07T07:34:11;0.40;99.90
20416;DHT22;10367;52.202;5.996;2024-01-07T07:36:40;0.40;99.90
20416;DHT22;10367;52.202;5.996;2024-01-07T07:39:10;0.40;99.90
20416;DHT22;10367;52.202;5.996;2024-01-07T07:41:40;0.40;99.90
20416;DHT22;10367;52.202;5.996;2024-01-07T07:44:09;0.40;99.90
20416;DHT22;10367;52.202;5.996;2024-01-07T07:46:38;0.40;99.90
20416;DHT22;10367;52.202;5.996;2024-01-07T07:49:07;0.40;99.90
20416;DHT22;10367;52.202;5.996;2024-01-07T07:51:37;0.40;99.90
20416;DHT22;10367;52.202;5.996;2024-01-07T07:54:06;0.40;99.90
20416;DHT22;10367;52.202;5.996;2024-01-07T07:56:34;0.30;99.90
20416;DHT22;10367;52.202;5.996;2024-01-07T07:59:03;0.40;99.90
20416;DHT22;10367;52.202;5.996;2024-01-07T08:01:32;0.40;99.90
20416;DHT22;10367;52.202;5.996;2024-01-07T08:04:00;0.30;99.90
20416;DHT22;10367;52.202;5.996;2024-01-07T08:06:30;0.40;99.90
20416;DHT22;10367;52.202;5.996;2024-01-07T08:09:00;0.40;99.90
20416;DHT22;10367;52.202;5.996;2024-01-07T08:11:29;0.40;99.90
20416;DHT22;10367;52.202;5.996;2024-01-07T08:13:58;0.40;99.90
20416;DHT22;10367;52.202;5.996;2024-01-07T08:16:28;0.40;99.90
20416;DHT22;10367;52.202;5.996;2024-01-07T08:18:57;0.40;99.90
20416;DHT22;10367;52.202;5.996;2024-01-07T08:21:26;0.40;99.90
20416;DHT22;10367;52.202;5.996;2024-01-07T08:23:55;0.50;99.90
20416;DHT22;10367;52.202;5.996;2024-01-07T08:26:25;0.50;99.90
20416;DHT22;10367;52.202;5.996;2024-01-07T08:28:54;0.50;99.90
20416;DHT22;10367;52.202;5.996;2024-01-07T08:31:22;0.40;99.90
20416;DHT22;10367;52.202;5.996;2024-01-07T08:33:51;0.50;99.90
20416;DHT22;10367;52.202;5.996;2024-01-07T08:36:20;0.60;99.90
20416;DHT22;10367;52.202;5.996;2024-01-07T08:38:49;0.50;99.90
20416;DHT22;10367;52.202;5.996;2024-01-07T08:41:18;0.50;99.90
20416;DHT22;10367;52.202;5.996;2024-01-07T08:43:48;0.50;99.90
20416;DHT22;10367;52.202;5.996;2024-01-07T08:46:17;0.50;99.90
20416;DHT22;10367;52.202;5.996;2024-01-07T08:48:48;0.50;99.90
20416;DHT22;10367;52.202;5.996;2024-01-07T08:51:17;0.50;99.90
20416;DHT22;10367;52.202;5.996;2024-01-07T08:53:46;0.60;99.90
20416;DHT22;10367;52.202;5.996;2024-01-07T08:56:15;0.60;99.90
20416;DHT22;10367;52.202;5.996;2024-01-07T08:58:43;0.60;99.90
20416;DHT22;10367;52.202;5.996;2024-01-07T09:01:13;0.50;99.90
20416;DHT22;10367;52.202;5.996;2024-01-07T09:03:42;0.60;99.90
20416;DHT22;10367;52.202;5.996;2024-01-07T09:06:11;0.60;99.90
20416;DHT22;10367;52.202;5.996;2024-01-07T09:08:40;0.60;99.90
20416;DHT22;10367;52.202;5.996;2024-01-07T09:11:09;0.60;99.90
20416;DHT22;10367;52.202;5.996;2024-01-07T09:13:40;0.60;99.90
20416;DHT22;10367;52.202;5.996;2024-01-07T09:16:11;0.60;99.90
20416;DHT22;10367;52.202;5.996;2024-01-07T09:18:41;0.60;99.90
20416;DHT22;10367;52.202;5.996;2024-01-07T09:21:12;0.60;99.90
20416;DHT22;10367;52.202;5.996;2024-01-07T09:23:41;0.60;99.90
20416;DHT22;10367;52.202;5.996;2024-01-07T09:26:10;0.50;99.90
20416;DHT22;10367;52.202;5.996;2024-01-07T09:28:39;0.60;99.90
20416;DHT22;10367;52.202;5.996;2024-01-07T09:31:07;0.60;99.90
20416;DHT22;10367;52.202;5.996;2024-01-07T09:33:36;0.60;99.90
20416;DHT22;10367;52.202;5.996;2024-01-07T09:36:08;0.60;99.90
20416;DHT22;10367;52.202;5.996;2024-01-07T09:38:55;0.60;99.90
20416;DHT22;10367;52.202;5.996;2024-01-07T09:41:24;0.50;99.90
20416;DHT22;10367;52.202;5.996;2024-01-07T09:43:53;0.50;99.90
20416;DHT22;10367;52.202;5.996;2024-01-07T09:46:24;0.50;99.90
20416;DHT22;10367;52.202;5.996;2024-01-07T09:48:54;0.50;99.90
20416;DHT22;10367;52.202;5.996;2024-01-07T09:51:26;0.50;99.90
20416;DHT22;10367;52.202;5.996;2024-01-07T09:53:58;0.50;99.90
20416;DHT22;10367;52.202;5.996;2024-01-07T09:56:36;0.50;99.90
20416;DHT22;10367;52.202;5.996;2024-01-07T09:59:07;0.50;99.90
20416;DHT22;10367;52.202;5.996;2024-01-07T10:01:36;0.40;99.90
20416;DHT22;10367;52.202;5.996;2024-01-07T10:04:06;0.50;99.90
20416;DHT22;10367;52.202;5.996;2024-01-07T10:06:36;0.40;99.90
20416;DHT22;10367;52.202;5.996;2024-01-07T10:09:06;0.40;99.90
20416;DHT22;10367;52.202;5.996;2024-01-07T10:11:35;0.40;99.90
20416;DHT22;10367;52.202;5.996;2024-01-07T10:14:04;0.40;99.90
20416;DHT22;10367;52.202;5.996;2024-01-07T10:16:33;0.40;99.90
20416;DHT22;10367;52.202;5.996;2024-01-07T10:19:02;0.40;99.90
20416;DHT22;10367;52.202;5.996;2024-01-07T10:21:31;0.50;99.90
20416;DHT22;10367;52.202;5.996;2024-01-07T10:24:09;0.50;99.90
20416;DHT22;10367;52.202;5.996;2024-01-07T10:26:38;0.60;99.90
20416;DHT22;10367;52.202;5.996;2024-01-07T10:29:08;0.60;99.90
20416;DHT22;10367;52.202;5.996;2024-01-07T10:31:38;0.60;99.90
20416;DHT22;10367;52.202;5.996;2024-01-07T10:34:08;0.60;99.90
20416;DHT22;10367;52.202;5.996;2024-01-07T10:36:38;0.50;99.90
20416;DHT22;10367;52.202;5.996;2024-01-07T10:39:09;0.40;99.90
20416;DHT22;10367;52.202;5.996;2024-01-07T10:41:38;0.40;99.90
20416;DHT22;10367;52.202;5.996;2024-01-07T10:44:08;0.40;99.90
20416;DHT22;10367;52.202;5.996;2024-01-07T10:46:37;0.40;99.90
20416;DHT22;10367;52.202;5.996;2024-01-07T10:49:11;0.50;99.90
20416;DHT22;10367;52.202;5.996;2024-01-07T10:51:46;0.60;99.90
20416;DHT22;10367;52.202;5.996;2024-01-07T10:54:19;0.70;99.90
20416;DHT22;10367;52.202;5.996;2024-01-07T10:56:50;0.90;99.90
20416;DHT22;10367;52.202;5.996;2024-01-07T10:59:21;1.00;99.90
20416;DHT22;10367;52.202;5.996;2024-01-07T11:01:51;1.10;99.90
20416;DHT22;10367;52.202;5.996;2024-01-07T11:04:26;1.10;99.90
20416;DHT22;10367;52.202;5.996;2024-01-07T11:07:03;1.20;99.90
20416;DHT22;10367;52.202;5.996;2024-01-07T11:09:39;1.30;99.90
20416;DHT22;10367;52.202;5.996;2024-01-07T11:12:12;1.40;99.90
20416;DHT22;10367;52.202;5.996;2024-01-07T11:14:42;1.40;99.90
20416;DHT22;10367;52.202;5.996;2024-01-07T11:17:12;1.40;99.90
20416;DHT22;10367;52.202;5.996;2024-01-07T11:19:49;1.40;99.90
20416;DHT22;10367;52.202;5.996;2024-01-07T11:22:23;1.40;99.90
20416;DHT22;10367;52.202;5.996;2024-01-07T11:24:56;1.50;99.90
20416;DHT22;10367;52.202;5.996;2024-01-07T11:27:28;1.60;99.90
20416;DHT22;10367;52.202;5.996;2024-01-07T11:30:02;1.60;99.90
20416;DHT22;10367;52.202;5.996;2024-01-07T11:32:33;1.60;99.90
20416;DHT22;10367;52.202;5.996;2024-01-07T11:35:03;1.50;99.90
20416;DHT22;10367;52.202;5.996;2024-01-07T11:37:32;1.70;99.90
20416;DHT22;10367;52.202;5.996;2024-01-07T11:40:05;1.80;99.90
20416;DHT22;10367;52.202;5.996;2024-01-07T11:42:34;1.80;99.90
20416;DHT22;10367;52.202;5.996;2024-01-07T11:45:04;1.70;99.90
20416;DHT22;10367;52.202;5.996;2024-01-07T11:47:32;1.60;99.90
20416;DHT22;10367;52.202;5.996;2024-01-07T11:50:01;1.60;99.90
20416;DHT22;10367;52.202;5.996;2024-01-07T11:52:33;1.60;99.90
20416;DHT22;10367;52.202;5.996;2024-01-07T11:55:06;1.50;99.90
20416;DHT22;10367;52.202;5.996;2024-01-07T11:57:35;1.40;99.90
20416;DHT22;10367;52.202;5.996;2024-01-07T12:00:06;1.50;99.90
20416;DHT22;10367;52.202;5.996;2024-01-07T12:02:35;1.60;99.90
20416;DHT22;10367;52.202;5.996;2024-01-07T12:05:04;1.60;99.90
20416;DHT22;10367;52.202;5.996;2024-01-07T12:07:33;1.50;99.90
20416;DHT22;10367;52.202;5.996;2024-01-07T12:10:08;1.50;99.90
20416;DHT22;10367;52.202;5.996;2024-01-07T12:12:40;1.50;99.90
20416;DHT22;10367;52.202;5.996;2024-01-07T12:15:09;1.60;99.90
20416;DHT22;10367;52.202;5.996;2024-01-07T12:17:39;1.80;99.90
20416;DHT22;10367;52.202;5.996;2024-01-07T12:20:09;2.10;99.90
20416;DHT22;10367;52.202;5.996;2024-01-07T12:22:38;2.40;99.90
20416;DHT22;10367;52.202;5.996;2024-01-07T12:25:09;2.70;99.90
20416;DHT22;10367;52.202;5.996;2024-01-07T12:27:41;2.80;99.90
20416;DHT22;10367;52.202;5.996;2024-01-07T12:30:10;2.80;99.90
20416;DHT22;10367;52.202;5.996;2024-01-07T12:32:39;2.50;99.90
20416;DHT22;10367;52.202;5.996;2024-01-07T12:35:08;2.10;99.90
20416;DHT22;10367;52.202;5.996;2024-01-07T12:37:38;1.80;99.90
20416;DHT22;10367;52.202;5.996;2024-01-07T12:40:09;1.50;99.90
20416;DHT22;10367;52.202;5.996;2024-01-07T12:42:39;1.50;99.90
20416;DHT22;10367;52.202;5.996;2024-01-07T12:45:12;1.50;99.90
20416;DHT22;10367;52.202;5.996;2024-01-07T12:47:44;1.40;99.90
20416;DHT22;10367;52.202;5.996;2024-01-07T12:50:14;1.40;99.90
20416;DHT22;10367;52.202;5.996;2024-01-07T12:52:44;1.50;99.90
20416;DHT22;10367;52.202;5.996;2024-01-07T12:55:14;1.50;99.90
20416;DHT22;10367;52.202;5.996;2024-01-07T12:57:43;1.60;99.90
20416;DHT22;10367;52.202;5.996;2024-01-07T13:00:12;1.50;99.90
20416;DHT22;10367;52.202;5.996;2024-01-07T13:02:41;1.50;99.90
20416;DHT22;10367;52.202;5.996;2024-01-07T13:05:10;1.50;99.90
20416;DHT22;10367;52.202;5.996;2024-01-07T13:07:39;1.60;99.90
20416;DHT22;10367;52.202;5.996;2024-01-07T13:10:08;1.60;99.90
20416;DHT22;10367;52.202;5.996;2024-01-07T13:12:39;1.50;99.90
20416;DHT22;10367;52.202;5.996;2024-01-07T13:15:17;1.50;99.90
20416;DHT22;10367;52.202;5.996;2024-01-07T13:17:46;1.60;99.90
20416;DHT22;10367;52.202;5.996;2024-01-07T13:20:15;1.50;99.90
20416;DHT22;10367;52.202;5.996;2024-01-07T13:22:47;1.50;99.90
20416;DHT22;10367;52.202;5.996;2024-01-07T13:25:16;1.50;99.90
20416;DHT22;10367;52.202;5.996;2024-01-07T13:27:46;1.60;99.90
20416;DHT22;10367;52.202;5.996;2024-01-07T13:30:15;1.60;99.90
20416;DHT22;10367;52.202;5.996;2024-01-07T13:32:44;1.70;99.90
20416;DHT22;10367;52.202;5.996;2024-01-07T13:35:13;1.70;99.90
20416;DHT22;10367;52.202;5.996;2024-01-07T13:37:43;1.60;99.90
20416;DHT22;10367;52.202;5.996;2024-01-07T13:40:13;1.60;99.90
20416;DHT22;10367;52.202;5.996;2024-01-07T13:42:42;1.50;99.90
20416;DHT22;10367;52.202;5.996;2024-01-07T13:45:13;1.40;99.90
20416;DHT22;10367;52.202;5.996;2024-01-07T13:47:41;1.30;99.90
20416;DHT22;10367;52.202;5.996;2024-01-07T13:50:10;1.30;99.90
20416;DHT22;10367;52.202;5.996;2024-01-07T13:52:39;1.30;99.90
20416;DHT22;10367;52.202;5.996;2024-01-07T13:55:08;1.30;99.90
20416;DHT22;10367;52.202;5.996;2024-01-07T13:57:38;1.30;99.90
20416;DHT22;10367;52.202;5.996;2024-01-07T14:00:10;1.20;99.90
20416;DHT22;10367;52.202;5.996;2024-01-07T14:02:47;1.20;99.90
20416;DHT22;10367;52.202;5.996;2024-01-07T14:05:17;1.10;99.90
20416;DHT22;10367;52.202;5.996;2024-01-07T14:07:47;1.00;99.90
20416;DHT22;10367;52.202;5.996;2024-01-07T14:10:16;1.00;99.90
20416;DHT22;10367;52.202;5.996;2024-01-07T14:12:47;1.00;99.90
20416;DHT22;10367;52.202;5.996;2024-01-07T14:15:16;1.00;99.90
20416;DHT22;10367;52.202;5.996;2024-01-07T14:17:47;0.90;99.90
20416;DHT22;10367;52.202;5.996;2024-01-07T14:20:17;0.80;99.90
20416;DHT22;10367;52.202;5.996;2024-01-07T14:22:45;0.80;99.90
20416;DHT22;10367;52.202;5.996;2024-01-07T14:25:14;0.80;99.90
20416;DHT22;10367;52.202;5.996;2024-01-07T14:27:44;0.90;99.90
20416;DHT22;10367;52.202;5.996;2024-01-07T14:30:13;0.90;99.90
20416;DHT22;10367;52.202;5.996;2024-01-07T14:32:42;0.90;99.90
20416;DHT22;10367;52.202;5.996;2024-01-07T14:35:13;1.00;99.90
20416;DHT22;10367;52.202;5.996;2024-01-07T14:37:42;1.00;99.90
20416;DHT22;10367;52.202;5.996;2024-01-07T14:40:12;1.10;99.90
20416;DHT22;10367;52.202;5.996;2024-01-07T14:42:40;1.20;99.90
20416;DHT22;10367;52.202;5.996;2024-01-07T14:45:11;1.30;99.90
20416;DHT22;10367;52.202;5.996;2024-01-07T14:47:40;1.30;99.90
20416;DHT22;10367;52.202;5.996;2024-01-07T14:50:09;1.30;99.90
20416;DHT22;10367;52.202;5.996;2024-01-07T14:52:40;1.30;99.90
20416;DHT22;10367;52.202;5.996;2024-01-07T14:55:09;1.20;99.90
20416;DHT22;10367;52.202;5.996;2024-01-07T14:57:38;1.10;99.90
20416;DHT22;10367;52.202;5.996;2024-01-07T15:00:08;1.00;99.90
20416;DHT22;10367;52.202;5.996;2024-01-07T15:02:36;0.90;99.90
20416;DHT22;10367;52.202;5.996;2024-01-07T15:05:06;0.80;99.90
20416;DHT22;10367;52.202;5.996;2024-01-07T15:07:36;0.80;99.90
20416;DHT22;10367;52.202;5.996;2024-01-07T15:10:07;0.60;99.90
20416;DHT22;10367;52.202;5.996;2024-01-07T15:12:36;0.60;99.90
20416;DHT22;10367;52.202;5.996;2024-01-07T15:15:13;0.50;99.90
20416;DHT22;10367;52.202;5.996;2024-01-07T15:17:42;0.50;99.90
20416;DHT22;10367;52.202;5.996;2024-01-07T15:20:11;0.40;99.90
20416;DHT22;10367;52.202;5.996;2024-01-07T15:22:40;0.40;99.90
20416;DHT22;10367;52.202;5.996;2024-01-07T15:25:10;0.30;99.90
20416;DHT22;10367;52.202;5.996;2024-01-07T15:27:39;0.20;99.90
20416;DHT22;10367;52.202;5.996;2024-01-07T15:30:09;0.20;99.90
20416;DHT22;10367;52.202;5.996;2024-01-07T15:32:40;0.10;99.90
20416;DHT22;10367;52.202;5.996;2024-01-07T15:35:09;0.10;99.90
20416;DHT22;10367;52.202;5.996;2024-01-07T15:37:37;0.00;99.90
20416;DHT22;10367;52.202;5.996;2024-01-07T15:40:07;0.00;99.90
20416;DHT22;10367;52.202;5.996;2024-01-07T15:42:38;-0.10;99.90
20416;DHT22;10367;52.202;5.996;2024-01-07T15:45:07;-0.20;99.90
20416;DHT22;10367;52.202;5.996;2024-01-07T15:47:37;-0.20;99.90
20416;DHT22;10367;52.202;5.996;2024-01-07T15:50:08;-0.20;99.90
20416;DHT22;10367;52.202;5.996;2024-01-07T15:52:38;-0.30;99.90
20416;DHT22;10367;52.202;5.996;2024-01-07T15:55:08;-0.30;99.90
20416;DHT22;10367;52.202;5.996;2024-01-07T15:57:38;-0.30;99.90
20416;DHT22;10367;52.202;5.996;2024-01-07T16:00:08;-0.20;99.90